sensor_id;sensor_type;location;lat;lon;timestamp;P1;durP1;ratioP1;P2;durP2;ratioP2
32932;SDS011;19444;50.518;10.870;2023-05-23T00:01:04;9.57;;;7.70;;
32932;SDS011;19444;50.518;10.870;2023-05-23T00:04:02;9.13;;;8.07;;
32932;SDS011;19444;50.518;10.870;2023-05-23T00:07:00;10.18;;;7.80;;
32932;SDS011;19444;50.518;10.870;2023-05-23T00:09:57;9.43;;;7.78;;
32932;SDS011;19444;50.518;10.870;2023-05-23T00:12:54;9.60;;;7.47;;
32932;SDS011;19444;50.518;10.870;2023-05-23T00:15:53;9.75;;;8.00;;
32932;SDS011;19444;50.518;10.870;2023-05-23T00:18:50;10.98;;;7.78;;
32932;SDS011;19444;50.518;10.870;2023-05-23T00:21:47;9.70;;;7.68;;
32932;SDS011;19444;50.518;10.870;2023-05-23T00:24:44;10.45;;;8.10;;
32932;SDS011;19444;50.518;10.870;2023-05-23T00:27:41;9.32;;;7.40;;
32932;SDS011;19444;50.518;10.870;2023-05-23T00:30:38;8.02;;;7.22;;
32932;SDS011;19444;50.518;10.870;2023-05-23T00:33:35;8.77;;;7.50;;
32932;SDS011;19444;50.518;10.870;2023-05-23T00:36:31;8.43;;;6.90;;
32932;SDS011;19444;50.518;10.870;2023-05-23T00:39:32;11.55;;;7.82;;
32932;SDS011;19444;50.518;10.870;2023-05-23T00:42:29;8.82;;;7.25;;
32932;SDS011;19444;50.518;10.870;2023-05-23T00:45:28;11.52;;;7.45;;
32932;SDS011;19444;50.518;10.870;2023-05-23T00:48:25;8.52;;;7.43;;
32932;SDS011;19444;50.518;10.870;2023-05-23T00:51:22;9.10;;;7.82;;
32932;SDS011;19444;50.518;10.870;2023-05-23T00:54:22;10.10;;;7.68;;
32932;SDS011;19444;50.518;10.870;2023-05-23T00:57:23;10.43;;;8.00;;
32932;SDS011;19444;50.518;10.870;2023-05-23T01:00:20;8.13;;;7.10;;
32932;SDS011;19444;50.518;10.870;2023-05-23T01:03:19;9.30;;;7.53;;
32932;SDS011;19444;50.518;10.870;2023-05-23T01:06:16;11.00;;;8.45;;
32932;SDS011;19444;50.518;10.870;2023-05-23T01:09:15;9.18;;;7.45;;
32932;SDS011;19444;50.518;10.870;2023-05-23T01:12:22;9.13;;;7.43;;
32932;SDS011;19444;50.518;10.870;2023-05-23T01:15:25;10.93;;;7.93;;
32932;SDS011;19444;50.518;10.870;2023-05-23T01:19:00;9.27;;;8.27;;
32932;SDS011;19444;50.518;10.870;2023-05-23T01:28:42;8.98;;;7.60;;
32932;SDS011;19444;50.518;10.870;2023-05-23T01:32:06;10.55;;;8.30;;
32932;SDS011;19444;50.518;10.870;2023-05-23T01:35:07;8.95;;;7.95;;
32932;SDS011;19444;50.518;10.870;2023-05-23T01:38:05;10.05;;;7.80;;
32932;SDS011;19444;50.518;10.870;2023-05-23T01:41:02;12.38;;;9.00;;
32932;SDS011;19444;50.518;10.870;2023-05-23T01:43:59;10.90;;;8.55;;
32932;SDS011;19444;50.518;10.870;2023-05-23T01:46:56;10.35;;;8.75;;
32932;SDS011;19444;50.518;10.870;2023-05-23T01:49:53;9.95;;;7.90;;
32932;SDS011;19444;50.518;10.870;2023-05-23T01:52:52;9.35;;;7.88;;
32932;SDS011;19444;50.518;10.870;2023-05-23T01:55:51;9.45;;;7.88;;
32932;SDS011;19444;50.518;10.870;2023-05-23T01:58:48;10.35;;;8.60;;
32932;SDS011;19444;50.518;10.870;2023-05-23T02:01:45;9.88;;;7.82;;
32932;SDS011;19444;50.518;10.870;2023-05-23T02:04:42;9.30;;;8.35;;
32932;SDS011;19444;50.518;10.870;2023-05-23T02:07:39;9.75;;;8.50;;
32932;SDS011;19444;50.518;10.870;2023-05-23T02:10:36;9.02;;;8.15;;
32932;SDS011;19444;50.518;10.870;2023-05-23T02:13:33;11.63;;;8.25;;
32932;SDS011;19444;50.518;10.870;2023-05-23T02:16:30;9.52;;;7.63;;
32932;SDS011;19444;50.518;10.870;2023-05-23T02:19:28;8.82;;;7.70;;
32932;SDS011;19444;50.518;10.870;2023-05-23T02:22:25;10.80;;;8.48;;
32932;SDS011;19444;50.518;10.870;2023-05-23T02:25:22;10.73;;;8.80;;
32932;SDS011;19444;50.518;10.870;2023-05-23T02:28:19;11.43;;;8.85;;
32932;SDS011;19444;50.518;10.870;2023-05-23T02:31:16;9.23;;;8.18;;
32932;SDS011;19444;50.518;10.870;2023-05-23T02:34:13;10.65;;;8.63;;
32932;SDS011;19444;50.518;10.870;2023-05-23T02:37:10;10.40;;;9.13;;
32932;SDS011;19444;50.518;10.870;2023-05-23T02:40:07;9.20;;;8.30;;
32932;SDS011;19444;50.518;10.870;2023-05-23T02:43:04;10.73;;;8.55;;
32932;SDS011;19444;50.518;10.870;2023-05-23T02:46:01;9.45;;;8.30;;
32932;SDS011;19444;50.518;10.870;2023-05-23T02:48:58;9.55;;;8.40;;
32932;SDS011;19444;50.518;10.870;2023-05-23T02:51:54;9.85;;;8.32;;
32932;SDS011;19444;50.518;10.870;2023-05-23T02:54:51;9.90;;;8.63;;
32932;SDS011;19444;50.518;10.870;2023-05-23T02:57:48;11.45;;;9.23;;
32932;SDS011;19444;50.518;10.870;2023-05-23T03:00:46;10.60;;;8.55;;
32932;SDS011;19444;50.518;10.870;2023-05-23T03:03:43;11.48;;;9.30;;
32932;SDS011;19444;50.518;10.870;2023-05-23T03:06:40;12.10;;;9.45;;
32932;SDS011;19444;50.518;10.870;2023-05-23T03:09:39;12.23;;;9.82;;
32932;SDS011;19444;50.518;10.870;2023-05-23T03:12:36;10.55;;;9.52;;
32932;SDS011;19444;50.518;10.870;2023-05-23T03:15:33;11.10;;;9.63;;
32932;SDS011;19444;50.518;10.870;2023-05-23T03:18:30;11.63;;;9.75;;
32932;SDS011;19444;50.518;10.870;2023-05-23T03:21:27;14.27;;;10.07;;
32932;SDS011;19444;50.518;10.870;2023-05-23T03:24:24;14.98;;;9.60;;
32932;SDS011;19444;50.518;10.870;2023-05-23T03:27:21;11.07;;;9.98;;
32932;SDS011;19444;50.518;10.870;2023-05-23T03:30:18;11.65;;;9.60;;
32932;SDS011;19444;50.518;10.870;2023-05-23T03:33:16;13.00;;;9.60;;
32932;SDS011;19444;50.518;10.870;2023-05-23T03:36:13;11.32;;;10.10;;
32932;SDS011;19444;50.518;10.870;2023-05-23T03:39:10;10.82;;;9.35;;
32932;SDS011;19444;50.518;10.870;2023-05-23T03:42:07;11.70;;;9.90;;
32932;SDS011;19444;50.518;10.870;2023-05-23T03:45:04;11.00;;;8.93;;
32932;SDS011;19444;50.518;10.870;2023-05-23T03:48:02;10.40;;;9.30;;
32932;SDS011;19444;50.518;10.870;2023-05-23T03:50:59;10.40;;;9.27;;
32932;SDS011;19444;50.518;10.870;2023-05-23T03:53:56;9.23;;;8.13;;
32932;SDS011;19444;50.518;10.870;2023-05-23T03:56:53;12.02;;;8.57;;
32932;SDS011;19444;50.518;10.870;2023-05-23T03:59:50;10.98;;;8.85;;
32932;SDS011;19444;50.518;10.870;2023-05-23T04:02:48;10.68;;;8.63;;
32932;SDS011;19444;50.518;10.870;2023-05-23T04:05:47;9.63;;;8.63;;
32932;SDS011;19444;50.518;10.870;2023-05-23T04:08:44;10.95;;;8.82;;
32932;SDS011;19444;50.518;10.870;2023-05-23T04:11:42;10.48;;;9.27;;
32932;SDS011;19444;50.518;10.870;2023-05-23T04:14:39;11.30;;;9.25;;
32932;SDS011;19444;50.518;10.870;2023-05-23T04:17:36;12.20;;;9.20;;
32932;SDS011;19444;50.518;10.870;2023-05-23T04:20:34;9.95;;;8.95;;
32932;SDS011;19444;50.518;10.870;2023-05-23T04:23:31;12.05;;;8.90;;
32932;SDS011;19444;50.518;10.870;2023-05-23T04:26:28;10.65;;;8.80;;
32932;SDS011;19444;50.518;10.870;2023-05-23T04:29:34;11.45;;;8.07;;
32932;SDS011;19444;50.518;10.870;2023-05-23T04:32:31;10.75;;;8.18;;
32932;SDS011;19444;50.518;10.870;2023-05-23T04:35:28;8.10;;;6.28;;
32932;SDS011;19444;50.518;10.870;2023-05-23T04:38:25;11.77;;;8.73;;
32932;SDS011;19444;50.518;10.870;2023-05-23T04:41:22;13.60;;;8.63;;
32932;SDS011;19444;50.518;10.870;2023-05-23T04:44:19;11.27;;;8.90;;
32932;SDS011;19444;50.518;10.870;2023-05-23T04:47:16;12.30;;;9.52;;
32932;SDS011;19444;50.518;10.870;2023-05-23T04:50:14;12.38;;;9.95;;
32932;SDS011;19444;50.518;10.870;2023-05-23T04:53:11;14.77;;;10.43;;
32932;SDS011;19444;50.518;10.870;2023-05-23T04:56:08;12.63;;;9.40;;
32932;SDS011;19444;50.518;10.870;2023-05-23T04:59:05;10.30;;;7.80;;
32932;SDS011;19444;50.518;10.870;2023-05-23T05:02:04;14.80;;;10.93;;
32932;SDS011;19444;50.518;10.870;2023-05-23T05:05:02;14.05;;;10.40;;
32932;SDS011;19444;50.518;10.870;2023-05-23T05:07:59;15.73;;;11.07;;
32932;SDS011;19444;50.518;10.870;2023-05-23T05:10:56;14.45;;;10.55;;
32932;SDS011;19444;50.518;10.870;2023-05-23T05:13:53;15.50;;;12.35;;
32932;SDS011;19444;50.518;10.870;2023-05-23T05:16:50;17.75;;;12.68;;
32932;SDS011;19444;50.518;10.870;2023-05-23T05:19:47;16.23;;;11.70;;
32932;SDS011;19444;50.518;10.870;2023-05-23T05:22:44;17.33;;;12.63;;
32932;SDS011;19444;50.518;10.870;2023-05-23T05:25:41;15.15;;;11.85;;
32932;SDS011;19444;50.518;10.870;2023-05-23T05:28:38;18.27;;;12.40;;
32932;SDS011;19444;50.518;10.870;2023-05-23T05:31:36;20.27;;;14.35;;
32932;SDS011;19444;50.518;10.870;2023-05-23T05:34:33;18.95;;;13.52;;
32932;SDS011;19444;50.518;10.870;2023-05-23T05:37:30;20.58;;;14.38;;
32932;SDS011;19444;50.518;10.870;2023-05-23T05:40:27;19.70;;;14.50;;
32932;SDS011;19444;50.518;10.870;2023-05-23T05:43:24;21.77;;;15.18;;
32932;SDS011;19444;50.518;10.870;2023-05-23T05:46:21;18.38;;;13.82;;
32932;SDS011;19444;50.518;10.870;2023-05-23T05:49:18;16.15;;;11.27;;
32932;SDS011;19444;50.518;10.870;2023-05-23T05:52:15;22.00;;;14.90;;
32932;SDS011;19444;50.518;10.870;2023-05-23T05:55:12;23.23;;;14.55;;
32932;SDS011;19444;50.518;10.870;2023-05-23T05:58:09;18.63;;;14.10;;
32932;SDS011;19444;50.518;10.870;2023-05-23T06:01:06;19.55;;;12.75;;
32932;SDS011;19444;50.518;10.870;2023-05-23T06:04:03;21.80;;;13.27;;
32932;SDS011;19444;50.518;10.870;2023-05-23T06:07:00;18.63;;;12.02;;
32932;SDS011;19444;50.518;10.870;2023-05-23T06:09:57;18.73;;;12.43;;
32932;SDS011;19444;50.518;10.870;2023-05-23T06:12:54;18.23;;;12.60;;
32932;SDS011;19444;50.518;10.870;2023-05-23T06:15:53;18.33;;;12.05;;
32932;SDS011;19444;50.518;10.870;2023-05-23T06:18:50;19.88;;;12.45;;
32932;SDS011;19444;50.518;10.870;2023-05-23T06:21:47;17.63;;;12.05;;
32932;SDS011;19444;50.518;10.870;2023-05-23T06:24:44;14.88;;;10.68;;
32932;SDS011;19444;50.518;10.870;2023-05-23T06:27:41;15.43;;;11.05;;
32932;SDS011;19444;50.518;10.870;2023-05-23T06:30:39;15.38;;;9.98;;
32932;SDS011;19444;50.518;10.870;2023-05-23T06:33:37;15.57;;;9.60;;
32932;SDS011;19444;50.518;10.870;2023-05-23T06:36:34;13.90;;;10.27;;
32932;SDS011;19444;50.518;10.870;2023-05-23T06:39:31;13.35;;;9.45;;
32932;SDS011;19444;50.518;10.870;2023-05-23T06:42:28;12.05;;;8.88;;
32932;SDS011;19444;50.518;10.870;2023-05-23T06:45:25;13.00;;;9.48;;
32932;SDS011;19444;50.518;10.870;2023-05-23T06:48:22;12.68;;;8.25;;
32932;SDS011;19444;50.518;10.870;2023-05-23T06:51:19;12.45;;;8.02;;
32932;SDS011;19444;50.518;10.870;2023-05-23T06:54:16;15.40;;;8.77;;
32932;SDS011;19444;50.518;10.870;2023-05-23T06:57:14;13.35;;;7.28;;
32932;SDS011;19444;50.518;10.870;2023-05-23T07:00:11;12.00;;;7.50;;
32932;SDS011;19444;50.518;10.870;2023-05-23T07:03:09;9.65;;;6.40;;
32932;SDS011;19444;50.518;10.870;2023-05-23T07:06:06;9.63;;;6.30;;
32932;SDS011;19444;50.518;10.870;2023-05-23T07:09:03;7.53;;;5.70;;
32932;SDS011;19444;50.518;10.870;2023-05-23T07:12:00;6.75;;;4.97;;
32932;SDS011;19444;50.518;10.870;2023-05-23T07:14:57;8.50;;;4.80;;
32932;SDS011;19444;50.518;10.870;2023-05-23T07:17:54;7.40;;;4.57;;
32932;SDS011;19444;50.518;10.870;2023-05-23T07:20:51;5.55;;;4.32;;
32932;SDS011;19444;50.518;10.870;2023-05-23T07:23:48;8.13;;;4.97;;
32932;SDS011;19444;50.518;10.870;2023-05-23T07:26:45;7.80;;;5.07;;
32932;SDS011;19444;50.518;10.870;2023-05-23T07:29:42;7.38;;;4.88;;
32932;SDS011;19444;50.518;10.870;2023-05-23T07:32:39;6.72;;;4.85;;
32932;SDS011;19444;50.518;10.870;2023-05-23T07:35:36;6.45;;;4.28;;
32932;SDS011;19444;50.518;10.870;2023-05-23T07:38:33;5.80;;;4.00;;
32932;SDS011;19444;50.518;10.870;2023-05-23T07:41:30;5.80;;;4.05;;
32932;SDS011;19444;50.518;10.870;2023-05-23T07:44:27;4.07;;;2.88;;
32932;SDS011;19444;50.518;10.870;2023-05-23T07:47:24;7.00;;;4.25;;
32932;SDS011;19444;50.518;10.870;2023-05-23T07:50:21;6.25;;;3.95;;
32932;SDS011;19444;50.518;10.870;2023-05-23T07:53:18;5.53;;;3.88;;
32932;SDS011;19444;50.518;10.870;2023-05-23T07:56:14;6.70;;;3.50;;
32932;SDS011;19444;50.518;10.870;2023-05-23T07:59:12;6.63;;;3.50;;
32932;SDS011;19444;50.518;10.870;2023-05-23T08:02:09;7.05;;;3.20;;
32932;SDS011;19444;50.518;10.870;2023-05-23T08:05:06;5.25;;;3.00;;
32932;SDS011;19444;50.518;10.870;2023-05-23T08:08:03;5.47;;;2.83;;
32932;SDS011;19444;50.518;10.870;2023-05-23T08:11:00;4.97;;;3.10;;
32932;SDS011;19444;50.518;10.870;2023-05-23T08:13:57;3.72;;;2.63;;
32932;SDS011;19444;50.518;10.870;2023-05-23T08:16:56;3.63;;;2.30;;
32932;SDS011;19444;50.518;10.870;2023-05-23T08:19:53;4.88;;;2.70;;
32932;SDS011;19444;50.518;10.870;2023-05-23T08:22:50;4.13;;;2.60;;
32932;SDS011;19444;50.518;10.870;2023-05-23T08:25:48;5.70;;;2.50;;
32932;SDS011;19444;50.518;10.870;2023-05-23T08:28:45;3.97;;;1.98;;
32932;SDS011;19444;50.518;10.870;2023-05-23T08:31:42;3.45;;;2.30;;
32932;SDS011;19444;50.518;10.870;2023-05-23T08:34:39;8.05;;;2.40;;
32932;SDS011;19444;50.518;10.870;2023-05-23T08:37:37;3.35;;;1.58;;
32932;SDS011;19444;50.518;10.870;2023-05-23T08:40:34;2.47;;;1.60;;
32932;SDS011;19444;50.518;10.870;2023-05-23T08:43:32;3.42;;;1.77;;
32932;SDS011;19444;50.518;10.870;2023-05-23T08:46:29;3.55;;;1.90;;
32932;SDS011;19444;50.518;10.870;2023-05-23T08:49:29;6.80;;;1.95;;
32932;SDS011;19444;50.518;10.870;2023-05-23T08:52:26;2.70;;;1.80;;
32932;SDS011;19444;50.518;10.870;2023-05-23T08:55:29;2.67;;;1.75;;
32932;SDS011;19444;50.518;10.870;2023-05-23T08:58:25;2.78;;;1.63;;
32932;SDS011;19444;50.518;10.870;2023-05-23T09:01:27;2.20;;;1.40;;
32932;SDS011;19444;50.518;10.870;2023-05-23T09:04:25;2.63;;;1.80;;
32932;SDS011;19444;50.518;10.870;2023-05-23T09:07:24;2.58;;;1.90;;
32932;SDS011;19444;50.518;10.870;2023-05-23T09:10:22;4.38;;;1.73;;
32932;SDS011;19444;50.518;10.870;2023-05-23T09:13:21;2.90;;;1.37;;
32932;SDS011;19444;50.518;10.870;2023-05-23T09:16:18;2.63;;;1.98;;
32932;SDS011;19444;50.518;10.870;2023-05-23T09:19:17;3.35;;;1.85;;
32932;SDS011;19444;50.518;10.870;2023-05-23T09:22:14;4.28;;;1.70;;
32932;SDS011;19444;50.518;10.870;2023-05-23T09:25:11;2.22;;;1.50;;
32932;SDS011;19444;50.518;10.870;2023-05-23T09:28:08;2.30;;;1.75;;
32932;SDS011;19444;50.518;10.870;2023-05-23T09:31:06;2.90;;;1.65;;
32932;SDS011;19444;50.518;10.870;2023-05-23T09:34:04;2.30;;;1.70;;
32932;SDS011;19444;50.518;10.870;2023-05-23T09:37:02;2.88;;;1.60;;
32932;SDS011;19444;50.518;10.870;2023-05-23T09:39:59;2.47;;;1.70;;
32932;SDS011;19444;50.518;10.870;2023-05-23T09:43:02;2.17;;;1.73;;
32932;SDS011;19444;50.518;10.870;2023-05-23T09:46:07;2.50;;;1.70;;
32932;SDS011;19444;50.518;10.870;2023-05-23T09:49:16;2.03;;;1.65;;
32932;SDS011;19444;50.518;10.870;2023-05-23T09:52:13;2.25;;;1.58;;
32932;SDS011;19444;50.518;10.870;2023-05-23T09:55:10;2.75;;;1.85;;
32932;SDS011;19444;50.518;10.870;2023-05-23T09:58:07;2.42;;;1.45;;
32932;SDS011;19444;50.518;10.870;2023-05-23T10:01:06;2.58;;;1.63;;
32932;SDS011;19444;50.518;10.870;2023-05-23T10:04:06;2.90;;;2.00;;
32932;SDS011;19444;50.518;10.870;2023-05-23T10:07:13;3.58;;;1.90;;
32932;SDS011;19444;50.518;10.870;2023-05-23T10:10:18;3.13;;;2.15;;
32932;SDS011;19444;50.518;10.870;2023-05-23T10:13:15;4.75;;;2.38;;
32932;SDS011;19444;50.518;10.870;2023-05-23T10:16:18;2.97;;;2.05;;
32932;SDS011;19444;50.518;10.870;2023-05-23T10:19:30;3.85;;;2.53;;
32932;SDS011;19444;50.518;10.870;2023-05-23T10:22:48;3.67;;;2.25;;
32932;SDS011;19444;50.518;10.870;2023-05-23T10:25:46;4.43;;;2.65;;
32932;SDS011;19444;50.518;10.870;2023-05-23T10:28:43;4.93;;;2.72;;
32932;SDS011;19444;50.518;10.870;2023-05-23T10:31:45;4.88;;;2.45;;
32932;SDS011;19444;50.518;10.870;2023-05-23T10:35:05;4.10;;;2.47;;
32932;SDS011;19444;50.518;10.870;2023-05-23T10:44:44;4.32;;;2.95;;
32932;SDS011;19444;50.518;10.870;2023-05-23T10:47:41;3.58;;;2.40;;
32932;SDS011;19444;50.518;10.870;2023-05-23T10:50:38;3.60;;;2.17;;
32932;SDS011;19444;50.518;10.870;2023-05-23T10:53:38;2.92;;;2.30;;
32932;SDS011;19444;50.518;10.870;2023-05-23T10:59:34;2.95;;;2.10;;
32932;SDS011;19444;50.518;10.870;2023-05-23T11:02:36;4.10;;;2.90;;
32932;SDS011;19444;50.518;10.870;2023-05-23T11:05:33;4.55;;;2.90;;
32932;SDS011;19444;50.518;10.870;2023-05-23T11:08:37;3.60;;;2.85;;
32932;SDS011;19444;50.518;10.870;2023-05-23T11:15:00;3.70;;;2.40;;
32932;SDS011;19444;50.518;10.870;2023-05-23T11:17:57;3.78;;;2.80;;
32932;SDS011;19444;50.518;10.870;2023-05-23T11:20:54;3.40;;;2.70;;
32932;SDS011;19444;50.518;10.870;2023-05-23T11:23:54;3.40;;;2.33;;
32932;SDS011;19444;50.518;10.870;2023-05-23T11:26:57;2.83;;;1.75;;
32932;SDS011;19444;50.518;10.870;2023-05-23T11:30:06;2.85;;;2.00;;
32932;SDS011;19444;50.518;10.870;2023-05-23T11:33:13;3.42;;;1.98;;
32932;SDS011;19444;50.518;10.870;2023-05-23T11:36:11;3.35;;;2.40;;
32932;SDS011;19444;50.518;10.870;2023-05-23T11:39:08;3.42;;;2.35;;
32932;SDS011;19444;50.518;10.870;2023-05-23T11:42:05;4.82;;;2.85;;
32932;SDS011;19444;50.518;10.870;2023-05-23T11:45:02;4.30;;;2.97;;
32932;SDS011;19444;50.518;10.870;2023-05-23T11:48:10;4.30;;;3.20;;
32932;SDS011;19444;50.518;10.870;2023-05-23T11:51:12;4.50;;;2.88;;
32932;SDS011;19444;50.518;10.870;2023-05-23T11:54:10;4.60;;;3.15;;
32932;SDS011;19444;50.518;10.870;2023-05-23T11:57:07;3.95;;;2.78;;
32932;SDS011;19444;50.518;10.870;2023-05-23T12:00:05;4.32;;;3.30;;
32932;SDS011;19444;50.518;10.870;2023-05-23T12:03:05;3.17;;;2.58;;
32932;SDS011;19444;50.518;10.870;2023-05-23T12:06:03;5.68;;;3.25;;
32932;SDS011;19444;50.518;10.870;2023-05-23T12:09:00;3.70;;;2.65;;
32932;SDS011;19444;50.518;10.870;2023-05-23T12:11:58;3.08;;;1.80;;
32932;SDS011;19444;50.518;10.870;2023-05-23T12:14:55;4.07;;;2.88;;
32932;SDS011;19444;50.518;10.870;2023-05-23T12:17:53;3.90;;;2.60;;
32932;SDS011;19444;50.518;10.870;2023-05-23T12:20:51;3.40;;;2.45;;
32932;SDS011;19444;50.518;10.870;2023-05-23T12:23:48;3.58;;;2.50;;
32932;SDS011;19444;50.518;10.870;2023-05-23T12:26:46;4.85;;;2.50;;
32932;SDS011;19444;50.518;10.870;2023-05-23T12:29:54;1.63;;;1.25;;
32932;SDS011;19444;50.518;10.870;2023-05-23T12:33:08;3.00;;;1.95;;
32932;SDS011;19444;50.518;10.870;2023-05-23T12:36:07;3.67;;;2.20;;
32932;SDS011;19444;50.518;10.870;2023-05-23T12:39:04;3.53;;;2.83;;
32932;SDS011;19444;50.518;10.870;2023-05-23T12:42:07;3.40;;;2.60;;
32932;SDS011;19444;50.518;10.870;2023-05-23T12:45:05;3.17;;;2.20;;
32932;SDS011;19444;50.518;10.870;2023-05-23T12:48:03;3.30;;;2.40;;
32932;SDS011;19444;50.518;10.870;2023-05-23T12:51:02;3.33;;;1.95;;
32932;SDS011;19444;50.518;10.870;2023-05-23T12:53:59;3.63;;;1.92;;
32932;SDS011;19444;50.518;10.870;2023-05-23T12:56:57;7.50;;;2.30;;
32932;SDS011;19444;50.518;10.870;2023-05-23T12:59:54;3.83;;;2.30;;
32932;SDS011;19444;50.518;10.870;2023-05-23T13:02:50;3.22;;;2.08;;
32932;SDS011;19444;50.518;10.870;2023-05-23T13:05:47;4.78;;;1.98;;
32932;SDS011;19444;50.518;10.870;2023-05-23T13:08:44;2.28;;;1.88;;
32932;SDS011;19444;50.518;10.870;2023-05-23T13:11:41;3.05;;;2.00;;
32932;SDS011;19444;50.518;10.870;2023-05-23T13:14:40;2.67;;;1.90;;
32932;SDS011;19444;50.518;10.870;2023-05-23T13:17:37;3.15;;;1.90;;
32932;SDS011;19444;50.518;10.870;2023-05-23T13:20:34;2.45;;;1.80;;
32932;SDS011;19444;50.518;10.870;2023-05-23T13:23:31;3.45;;;1.90;;
32932;SDS011;19444;50.518;10.870;2023-05-23T13:26:28;2.85;;;1.77;;
32932;SDS011;19444;50.518;10.870;2023-05-23T13:29:25;3.55;;;1.80;;
32932;SDS011;19444;50.518;10.870;2023-05-23T13:32:21;2.55;;;1.40;;
32932;SDS011;19444;50.518;10.870;2023-05-23T13:35:18;1.60;;;1.20;;
32932;SDS011;19444;50.518;10.870;2023-05-23T13:38:19;2.13;;;1.33;;
32932;SDS011;19444;50.518;10.870;2023-05-23T13:41:16;3.15;;;1.10;;
32932;SDS011;19444;50.518;10.870;2023-05-23T13:44:13;2.08;;;1.23;;
32932;SDS011;19444;50.518;10.870;2023-05-23T13:47:11;2.67;;;1.33;;
32932;SDS011;19444;50.518;10.870;2023-05-23T13:50:09;2.33;;;1.13;;
32932;SDS011;19444;50.518;10.870;2023-05-23T13:53:06;2.03;;;1.13;;
32932;SDS011;19444;50.518;10.870;2023-05-23T13:56:09;1.80;;;1.17;;
32932;SDS011;19444;50.518;10.870;2023-05-23T13:59:06;2.05;;;0.93;;
32932;SDS011;19444;50.518;10.870;2023-05-23T14:02:03;1.50;;;1.15;;
32932;SDS011;19444;50.518;10.870;2023-05-23T14:05:01;1.08;;;0.80;;
32932;SDS011;19444;50.518;10.870;2023-05-23T14:07:58;3.70;;;0.80;;
32932;SDS011;19444;50.518;10.870;2023-05-23T14:10:55;1.35;;;0.75;;
32932;SDS011;19444;50.518;10.870;2023-05-23T14:13:52;1.63;;;0.82;;
32932;SDS011;19444;50.518;10.870;2023-05-23T14:16:49;2.47;;;0.82;;
32932;SDS011;19444;50.518;10.870;2023-05-23T14:19:47;2.00;;;0.93;;
32932;SDS011;19444;50.518;10.870;2023-05-23T14:22:44;1.67;;;0.80;;
32932;SDS011;19444;50.518;10.870;2023-05-23T14:25:41;1.73;;;0.90;;
32932;SDS011;19444;50.518;10.870;2023-05-23T14:28:38;1.38;;;0.98;;
32932;SDS011;19444;50.518;10.870;2023-05-23T14:31:35;1.00;;;0.70;;
32932;SDS011;19444;50.518;10.870;2023-05-23T14:34:32;1.23;;;0.60;;
32932;SDS011;19444;50.518;10.870;2023-05-23T14:37:29;1.60;;;1.02;;
32932;SDS011;19444;50.518;10.870;2023-05-23T14:40:26;1.33;;;0.73;;
32932;SDS011;19444;50.518;10.870;2023-05-23T14:43:23;1.50;;;0.90;;
32932;SDS011;19444;50.518;10.870;2023-05-23T14:46:20;2.28;;;1.05;;
32932;SDS011;19444;50.518;10.870;2023-05-23T14:49:17;2.22;;;0.80;;
32932;SDS011;19444;50.518;10.870;2023-05-23T14:52:15;1.90;;;1.05;;
32932;SDS011;19444;50.518;10.870;2023-05-23T14:55:12;2.53;;;1.05;;
32932;SDS011;19444;50.518;10.870;2023-05-23T14:58:09;1.23;;;0.90;;
32932;SDS011;19444;50.518;10.870;2023-05-23T15:01:06;2.78;;;1.13;;
32932;SDS011;19444;50.518;10.870;2023-05-23T15:04:03;1.30;;;0.82;;
32932;SDS011;19444;50.518;10.870;2023-05-23T15:07:00;1.40;;;0.90;;
32932;SDS011;19444;50.518;10.870;2023-05-23T15:09:57;1.38;;;0.73;;
32932;SDS011;19444;50.518;10.870;2023-05-23T15:12:54;1.45;;;0.80;;
32932;SDS011;19444;50.518;10.870;2023-05-23T15:15:51;1.80;;;0.80;;
32932;SDS011;19444;50.518;10.870;2023-05-23T15:18:49;2.13;;;1.05;;
32932;SDS011;19444;50.518;10.870;2023-05-23T15:21:46;1.67;;;0.90;;
32932;SDS011;19444;50.518;10.870;2023-05-23T15:24:46;1.20;;;0.60;;
32932;SDS011;19444;50.518;10.870;2023-05-23T15:27:43;0.70;;;0.60;;
32932;SDS011;19444;50.518;10.870;2023-05-23T15:30:41;1.40;;;0.70;;
32932;SDS011;19444;50.518;10.870;2023-05-23T15:33:39;1.20;;;0.60;;
32932;SDS011;19444;50.518;10.870;2023-05-23T15:36:38;1.55;;;0.80;;
32932;SDS011;19444;50.518;10.870;2023-05-23T15:39:36;1.17;;;0.75;;
32932;SDS011;19444;50.518;10.870;2023-05-23T15:42:32;1.10;;;0.70;;
32932;SDS011;19444;50.518;10.870;2023-05-23T15:45:31;1.52;;;0.88;;
32932;SDS011;19444;50.518;10.870;2023-05-23T15:48:27;1.13;;;1.00;;
32932;SDS011;19444;50.518;10.870;2023-05-23T15:51:25;1.58;;;0.88;;
32932;SDS011;19444;50.518;10.870;2023-05-23T15:54:24;0.70;;;0.50;;
32932;SDS011;19444;50.518;10.870;2023-05-23T15:57:21;1.55;;;1.00;;
32932;SDS011;19444;50.518;10.870;2023-05-23T16:00:18;1.58;;;1.00;;
32932;SDS011;19444;50.518;10.870;2023-05-23T16:03:21;1.40;;;1.02;;
32932;SDS011;19444;50.518;10.870;2023-05-23T16:06:18;2.22;;;1.35;;
32932;SDS011;19444;50.518;10.870;2023-05-23T16:09:14;2.33;;;1.40;;
32932;SDS011;19444;50.518;10.870;2023-05-23T16:12:11;2.05;;;1.40;;
32932;SDS011;19444;50.518;10.870;2023-05-23T16:15:08;3.08;;;1.33;;
32932;SDS011;19444;50.518;10.870;2023-05-23T16:18:06;29.20;;;14.00;;
32932;SDS011;19444;50.518;10.870;2023-05-23T16:21:03;4.55;;;2.38;;
32932;SDS011;19444;50.518;10.870;2023-05-23T16:24:00;5.40;;;2.65;;
32932;SDS011;19444;50.518;10.870;2023-05-23T16:26:58;10.35;;;6.50;;
32932;SDS011;19444;50.518;10.870;2023-05-23T16:29:55;6.22;;;3.13;;
32932;SDS011;19444;50.518;10.870;2023-05-23T16:32:55;2.78;;;1.90;;
32932;SDS011;19444;50.518;10.870;2023-05-23T16:35:52;23.42;;;13.63;;
32932;SDS011;19444;50.518;10.870;2023-05-23T16:38:50;8.32;;;6.30;;
32932;SDS011;19444;50.518;10.870;2023-05-23T16:41:50;3.83;;;2.25;;
32932;SDS011;19444;50.518;10.870;2023-05-23T16:44:47;7.43;;;5.68;;
32932;SDS011;19444;50.518;10.870;2023-05-23T16:47:44;3.85;;;3.45;;
32932;SDS011;19444;50.518;10.870;2023-05-23T16:50:41;3.85;;;2.55;;
32932;SDS011;19444;50.518;10.870;2023-05-23T16:53:38;4.28;;;2.97;;
32932;SDS011;19444;50.518;10.870;2023-05-23T16:56:35;5.13;;;3.15;;
32932;SDS011;19444;50.518;10.870;2023-05-23T16:59:34;4.25;;;2.90;;
32932;SDS011;19444;50.518;10.870;2023-05-23T17:02:31;21.73;;;3.78;;
32932;SDS011;19444;50.518;10.870;2023-05-23T17:05:28;4.72;;;3.05;;
32932;SDS011;19444;50.518;10.870;2023-05-23T17:08:25;5.10;;;3.45;;
32932;SDS011;19444;50.518;10.870;2023-05-23T17:11:22;3.85;;;2.88;;
32932;SDS011;19444;50.518;10.870;2023-05-23T17:14:20;4.10;;;2.78;;
32932;SDS011;19444;50.518;10.870;2023-05-23T17:17:17;7.10;;;5.03;;
32932;SDS011;19444;50.518;10.870;2023-05-23T17:20:14;3.45;;;2.40;;
32932;SDS011;19444;50.518;10.870;2023-05-23T17:23:11;5.00;;;2.17;;
32932;SDS011;19444;50.518;10.870;2023-05-23T17:26:08;6.43;;;2.30;;
32932;SDS011;19444;50.518;10.870;2023-05-23T17:29:06;3.83;;;1.98;;
32932;SDS011;19444;50.518;10.870;2023-05-23T17:32:03;6.32;;;3.72;;
32932;SDS011;19444;50.518;10.870;2023-05-23T17:35:00;4.35;;;2.78;;
32932;SDS011;19444;50.518;10.870;2023-05-23T17:37:57;4.82;;;3.05;;
32932;SDS011;19444;50.518;10.870;2023-05-23T17:40:55;4.32;;;2.65;;
32932;SDS011;19444;50.518;10.870;2023-05-23T17:43:52;4.30;;;2.50;;
32932;SDS011;19444;50.518;10.870;2023-05-23T17:46:49;4.10;;;2.53;;
32932;SDS011;19444;50.518;10.870;2023-05-23T17:49:46;3.35;;;2.47;;